sensor_id;sensor_type;location;lat;lon;timestamp;temperature;humidity
6375;DHT22;35400;45.472;-122.822;2024-02-28T00:02:03;8.10;99.90
6375;DHT22;35400;45.472;-122.822;2024-02-28T00:04:30;8.00;99.90
6375;DHT22;35400;45.472;-122.822;2024-02-28T00:06:57;8.00;99.90
6375;DHT22;35400;45.472;-122.822;2024-02-28T00:09:24;8.10;99.90
6375;DHT22;35400;45.472;-122.822;2024-02-28T00:11:51;8.10;99.90
6375;DHT22;35400;45.472;-122.822;2024-02-28T00:14:18;8.10;99.90
6375;DHT22;35400;45.472;-122.822;2024-02-28T00:16:45;8.10;99.90
6375;DHT22;35400;45.472;-122.822;2024-02-28T00:19:13;8.10;99.90
6375;DHT22;35400;45.472;-122.822;2024-02-28T00:21:40;8.10;99.90
6375;DHT22;35400;45.472;-122.822;2024-02-28T00:24:07;8.10;99.90
6375;DHT22;35400;45.472;-122.822;2024-02-28T00:26:34;8.00;99.90
6375;DHT22;35400;45.472;-122.822;2024-02-28T00:29:02;8.00;99.90
6375;DHT22;35400;45.472;-122.822;2024-02-28T00:31:28;8.00;99.90
6375;DHT22;35400;45.472;-122.822;2024-02-28T00:33:55;7.90;99.90
6375;DHT22;35400;45.472;-122.822;2024-02-28T00:36:22;7.90;99.90
6375;DHT22;35400;45.472;-122.822;2024-02-28T00:38:49;7.90;99.90
6375;DHT22;35400;45.472;-122.822;2024-02-28T00:41:16;7.90;99.90
6375;DHT22;35400;45.472;-122.822;2024-02-28T00:43:43;7.90;99.90
6375;DHT22;35400;45.472;-122.822;2024-02-28T00:46:10;7.90;99.90
6375;DHT22;35400;45.472;-122.822;2024-02-28T00:48:39;7.90;99.90
6375;DHT22;35400;45.472;-122.822;2024-02-28T00:51:06;7.90;99.90
6375;DHT22;35400;45.472;-122.822;2024-02-28T00:53:34;7.90;99.90
6375;DHT22;35400;45.472;-122.822;2024-02-28T00:56:02;7.90;99.90
6375;DHT22;35400;45.472;-122.822;2024-02-28T00:58:28;7.90;99.90
6375;DHT22;35400;45.472;-122.822;2024-02-28T01:00:56;7.90;99.90
6375;DHT22;35400;45.472;-122.822;2024-02-28T01:03:23;7.90;99.90
6375;DHT22;35400;45.472;-122.822;2024-02-28T01:05:50;7.90;99.90
6375;DHT22;35400;45.472;-122.822;2024-02-28T01:08:17;7.90;99.90
6375;DHT22;35400;45.472;-122.822;2024-02-28T01:10:45;7.80;99.90
6375;DHT22;35400;45.472;-122.822;2024-02-28T01:13:12;7.90;99.90
6375;DHT22;35400;45.472;-122.822;2024-02-28T01:15:42;7.80;99.90
6375;DHT22;35400;45.472;-122.822;2024-02-28T01:18:09;7.80;99.90
6375;DHT22;35400;45.472;-122.822;2024-02-28T01:20:37;7.80;99.90
6375;DHT22;35400;45.472;-122.822;2024-02-28T01:23:04;7.80;99.90
6375;DHT22;35400;45.472;-122.822;2024-02-28T01:25:31;7.80;99.90
6375;DHT22;35400;45.472;-122.822;2024-02-28T01:27:57;7.70;99.90
6375;DHT22;35400;45.472;-122.822;2024-02-28T01:30:25;7.70;99.90
6375;DHT22;35400;45.472;-122.822;2024-02-28T01:32:52;7.70;99.90
6375;DHT22;35400;45.472;-122.822;2024-02-28T01:35:19;7.70;99.90
6375;DHT22;35400;45.472;-122.822;2024-02-28T01:37:46;7.70;99.90
6375;DHT22;35400;45.472;-122.822;2024-02-28T01:40:13;7.60;99.90
6375;DHT22;35400;45.472;-122.822;2024-02-28T01:42:40;7.60;99.90
6375;DHT22;35400;45.472;-122.822;2024-02-28T01:45:07;7.60;99.90
6375;DHT22;35400;45.472;-122.822;2024-02-28T01:47:36;7.60;99.90
6375;DHT22;35400;45.472;-122.822;2024-02-28T01:50:04;7.60;99.90
6375;DHT22;35400;45.472;-122.822;2024-02-28T01:52:31;7.60;99.90
6375;DHT22;35400;45.472;-122.822;2024-02-28T01:54:58;7.50;99.90
6375;DHT22;35400;45.472;-122.822;2024-02-28T01:57:25;7.50;99.90
6375;DHT22;35400;45.472;-122.822;2024-02-28T01:59:53;7.50;99.90
6375;DHT22;35400;45.472;-122.822;2024-02-28T02:02:22;7.50;99.90
6375;DHT22;35400;45.472;-122.822;2024-02-28T02:04:49;7.50;99.90
6375;DHT22;35400;45.472;-122.822;2024-02-28T02:07:19;7.50;99.90
6375;DHT22;35400;45.472;-122.822;2024-02-28T02:09:46;7.50;99.90
6375;DHT22;35400;45.472;-122.822;2024-02-28T02:12:13;7.50;99.90
6375;DHT22;35400;45.472;-122.822;2024-02-28T02:14:40;7.50;99.90
6375;DHT22;35400;45.472;-122.822;2024-02-28T02:17:07;7.50;99.90
6375;DHT22;35400;45.472;-122.822;2024-02-28T02:19:34;7.50;99.90
6375;DHT22;35400;45.472;-122.822;2024-02-28T02:22:02;7.50;99.90
6375;DHT22;35400;45.472;-122.822;2024-02-28T02:24:31;7.50;99.90
6375;DHT22;35400;45.472;-122.822;2024-02-28T02:26:59;7.50;99.90
6375;DHT22;35400;45.472;-122.822;2024-02-28T02:29:25;7.50;99.90
6375;DHT22;35400;45.472;-122.822;2024-02-28T02:31:54;7.50;99.90
6375;DHT22;35400;45.472;-122.822;2024-02-28T02:34:21;7.50;99.90
6375;DHT22;35400;45.472;-122.822;2024-02-28T02:36:48;7.50;99.90
6375;DHT22;35400;45.472;-122.822;2024-02-28T02:39:15;7.50;99.90
6375;DHT22;35400;45.472;-122.822;2024-02-28T02:41:42;7.50;99.90
6375;DHT22;35400;45.472;-122.822;2024-02-28T02:44:09;7.50;99.90
6375;DHT22;35400;45.472;-122.822;2024-02-28T02:46:36;7.40;99.90
6375;DHT22;35400;45.472;-122.822;2024-02-28T02:49:02;7.50;99.90
6375;DHT22;35400;45.472;-122.822;2024-02-28T02:51:29;7.50;99.90
6375;DHT22;35400;45.472;-122.822;2024-02-28T02:53:56;7.50;99.90
6375;DHT22;35400;45.472;-122.822;2024-02-28T02:56:23;7.40;99.90
6375;DHT22;35400;45.472;-122.822;2024-02-28T02:58:50;7.40;99.90
6375;DHT22;35400;45.472;-122.822;2024-02-28T03:01:17;7.40;99.90
6375;DHT22;35400;45.472;-122.822;2024-02-28T03:03:46;7.40;99.90
6375;DHT22;35400;45.472;-122.822;2024-02-28T03:06:13;7.40;99.90
6375;DHT22;35400;45.472;-122.822;2024-02-28T03:08:40;7.40;99.90
6375;DHT22;35400;45.472;-122.822;2024-02-28T03:11:06;7.50;99.90
6375;DHT22;35400;45.472;-122.822;2024-02-28T03:13:35;7.40;99.90
6375;DHT22;35400;45.472;-122.822;2024-02-28T03:16:04;7.40;99.90
6375;DHT22;35400;45.472;-122.822;2024-02-28T03:18:30;7.40;99.90
6375;DHT22;35400;45.472;-122.822;2024-02-28T03:20:57;7.40;99.90
6375;DHT22;35400;45.472;-122.822;2024-02-28T03:23:24;7.40;99.90
6375;DHT22;35400;45.472;-122.822;2024-02-28T03:25:52;7.40;99.90
6375;DHT22;35400;45.472;-122.822;2024-02-28T03:28:18;7.40;99.90
6375;DHT22;35400;45.472;-122.822;2024-02-28T03:30:45;7.40;99.90
6375;DHT22;35400;45.472;-122.822;2024-02-28T03:33:12;7.40;99.90
6375;DHT22;35400;45.472;-122.822;2024-02-28T03:35:39;7.40;99.90
6375;DHT22;35400;45.472;-122.822;2024-02-28T03:38:06;7.40;99.90
6375;DHT22;35400;45.472;-122.822;2024-02-28T03:40:33;7.40;99.90
6375;DHT22;35400;45.472;-122.822;2024-02-28T03:43:00;7.40;99.90
6375;DHT22;35400;45.472;-122.822;2024-02-28T03:45:28;7.40;99.90
6375;DHT22;35400;45.472;-122.822;2024-02-28T03:47:58;7.40;99.90
6375;DHT22;35400;45.472;-122.822;2024-02-28T03:50:25;7.40;99.90
6375;DHT22;35400;45.472;-122.822;2024-02-28T03:52:52;7.40;99.90
6375;DHT22;35400;45.472;-122.822;2024-02-28T03:55:18;7.40;99.90
6375;DHT22;35400;45.472;-122.822;2024-02-28T03:57:49;7.40;99.90
6375;DHT22;35400;45.472;-122.822;2024-02-28T04:00:18;7.40;99.90
6375;DHT22;35400;45.472;-122.822;2024-02-28T04:02:45;7.40;99.90
6375;DHT22;35400;45.472;-122.822;2024-02-28T04:05:12;7.30;99.90
6375;DHT22;35400;45.472;-122.822;2024-02-28T04:07:38;7.30;99.90
6375;DHT22;35400;45.472;-122.822;2024-02-28T04:10:06;7.30;99.90
6375;DHT22;35400;45.472;-122.822;2024-02-28T04:12:33;7.20;99.90
6375;DHT22;35400;45.472;-122.822;2024-02-28T04:15:00;7.20;99.90
6375;DHT22;35400;45.472;-122.822;2024-02-28T04:17:26;7.20;99.90
6375;DHT22;35400;45.472;-122.822;2024-02-28T04:19:53;7.10;99.90
6375;DHT22;35400;45.472;-122.822;2024-02-28T04:22:20;7.10;99.90
6375;DHT22;35400;45.472;-122.822;2024-02-28T04:24:47;7.10;99.90
6375;DHT22;35400;45.472;-122.822;2024-02-28T04:27:14;7.00;99.90
6375;DHT22;35400;45.472;-122.822;2024-02-28T04:29:41;7.00;99.90
6375;DHT22;35400;45.472;-122.822;2024-02-28T04:32:08;7.00;99.90
6375;DHT22;35400;45.472;-122.822;2024-02-28T04:34:36;7.00;99.90
6375;DHT22;35400;45.472;-122.822;2024-02-28T04:37:03;6.90;99.90
6375;DHT22;35400;45.472;-122.822;2024-02-28T04:39:30;7.00;99.90
6375;DHT22;35400;45.472;-122.822;2024-02-28T04:41:57;7.00;99.90
6375;DHT22;35400;45.472;-122.822;2024-02-28T04:44:24;6.90;99.90
6375;DHT22;35400;45.472;-122.822;2024-02-28T04:46:51;7.00;99.90
6375;DHT22;35400;45.472;-122.822;2024-02-28T04:49:18;7.00;99.90
6375;DHT22;35400;45.472;-122.822;2024-02-28T04:51:45;6.90;99.90
6375;DHT22;35400;45.472;-122.822;2024-02-28T04:54:11;6.90;99.90
6375;DHT22;35400;45.472;-122.822;2024-02-28T04:56:41;6.90;99.90
6375;DHT22;35400;45.472;-122.822;2024-02-28T04:59:11;6.90;99.90
6375;DHT22;35400;45.472;-122.822;2024-02-28T05:01:41;6.90;99.90
6375;DHT22;35400;45.472;-122.822;2024-02-28T05:04:12;6.80;99.90
6375;DHT22;35400;45.472;-122.822;2024-02-28T05:06:39;6.80;99.90
6375;DHT22;35400;45.472;-122.822;2024-02-28T05:09:06;6.80;99.90
6375;DHT22;35400;45.472;-122.822;2024-02-28T05:11:33;6.80;99.90
6375;DHT22;35400;45.472;-122.822;2024-02-28T05:14:00;6.80;99.90
6375;DHT22;35400;45.472;-122.822;2024-02-28T05:16:27;6.90;99.90
6375;DHT22;35400;45.472;-122.822;2024-02-28T05:18:53;6.90;99.90
6375;DHT22;35400;45.472;-122.822;2024-02-28T05:21:20;6.90;99.90
6375;DHT22;35400;45.472;-122.822;2024-02-28T05:23:47;6.90;99.90
6375;DHT22;35400;45.472;-122.822;2024-02-28T05:26:14;6.90;99.90
6375;DHT22;35400;45.472;-122.822;2024-02-28T05:28:41;6.90;99.90
6375;DHT22;35400;45.472;-122.822;2024-02-28T05:31:40;6.90;99.90
6375;DHT22;35400;45.472;-122.822;2024-02-28T05:34:07;6.90;99.90
6375;DHT22;35400;45.472;-122.822;2024-02-28T05:36:33;6.90;99.90
6375;DHT22;35400;45.472;-122.822;2024-02-28T05:39:01;6.90;99.90
6375;DHT22;35400;45.472;-122.822;2024-02-28T05:41:28;6.90;99.90
6375;DHT22;35400;45.472;-122.822;2024-02-28T05:43:55;6.90;99.90
6375;DHT22;35400;45.472;-122.822;2024-02-28T05:46:22;6.90;99.90
6375;DHT22;35400;45.472;-122.822;2024-02-28T05:48:52;6.90;99.90
6375;DHT22;35400;45.472;-122.822;2024-02-28T05:51:19;6.90;99.90
6375;DHT22;35400;45.472;-122.822;2024-02-28T05:53:46;6.90;99.90
6375;DHT22;35400;45.472;-122.822;2024-02-28T05:56:13;6.90;99.90
6375;DHT22;35400;45.472;-122.822;2024-02-28T05:58:44;6.90;99.90
6375;DHT22;35400;45.472;-122.822;2024-02-28T06:01:12;7.00;99.90
6375;DHT22;35400;45.472;-122.822;2024-02-28T06:03:39;7.00;99.90
6375;DHT22;35400;45.472;-122.822;2024-02-28T06:06:06;7.00;99.90
6375;DHT22;35400;45.472;-122.822;2024-02-28T06:08:34;7.00;99.90
6375;DHT22;35400;45.472;-122.822;2024-02-28T06:11:01;7.00;99.90
6375;DHT22;35400;45.472;-122.822;2024-02-28T06:13:28;7.00;99.90
6375;DHT22;35400;45.472;-122.822;2024-02-28T06:15:56;7.10;99.90
6375;DHT22;35400;45.472;-122.822;2024-02-28T06:18:24;7.10;99.90
6375;DHT22;35400;45.472;-122.822;2024-02-28T06:20:56;7.10;99.90
6375;DHT22;35400;45.472;-122.822;2024-02-28T06:23:23;7.20;99.90
6375;DHT22;35400;45.472;-122.822;2024-02-28T06:25:50;7.10;99.90
6375;DHT22;35400;45.472;-122.822;2024-02-28T06:28:17;7.10;99.90
6375;DHT22;35400;45.472;-122.822;2024-02-28T06:30:44;7.20;99.90
6375;DHT22;35400;45.472;-122.822;2024-02-28T06:33:14;7.20;99.90
6375;DHT22;35400;45.472;-122.822;2024-02-28T06:35:41;7.20;99.90
6375;DHT22;35400;45.472;-122.822;2024-02-28T06:38:08;7.20;99.90
6375;DHT22;35400;45.472;-122.822;2024-02-28T06:40:35;7.20;99.90
6375;DHT22;35400;45.472;-122.822;2024-02-28T06:43:02;7.20;99.90
6375;DHT22;35400;45.472;-122.822;2024-02-28T06:45:28;7.20;99.90
6375;DHT22;35400;45.472;-122.822;2024-02-28T06:47:55;7.20;99.90
6375;DHT22;35400;45.472;-122.822;2024-02-28T06:50:22;7.20;99.90
6375;DHT22;35400;45.472;-122.822;2024-02-28T06:52:49;7.30;99.90
6375;DHT22;35400;45.472;-122.822;2024-02-28T06:55:16;7.30;99.90
6375;DHT22;35400;45.472;-122.822;2024-02-28T06:57:43;7.30;99.90
6375;DHT22;35400;45.472;-122.822;2024-02-28T07:00:11;7.30;99.90
6375;DHT22;35400;45.472;-122.822;2024-02-28T07:02:38;7.30;99.90
6375;DHT22;35400;45.472;-122.822;2024-02-28T07:05:05;7.30;99.90
6375;DHT22;35400;45.472;-122.822;2024-02-28T07:07:33;7.30;99.90
6375;DHT22;35400;45.472;-122.822;2024-02-28T07:10:02;7.30;99.90
6375;DHT22;35400;45.472;-122.822;2024-02-28T07:12:29;7.40;99.90
6375;DHT22;35400;45.472;-122.822;2024-02-28T07:14:56;7.40;99.90
6375;DHT22;35400;45.472;-122.822;2024-02-28T07:17:23;7.40;99.90
6375;DHT22;35400;45.472;-122.822;2024-02-28T07:19:49;7.40;99.90
6375;DHT22;35400;45.472;-122.822;2024-02-28T07:22:17;7.40;99.90
6375;DHT22;35400;45.472;-122.822;2024-02-28T07:24:44;7.40;99.90
6375;DHT22;35400;45.472;-122.822;2024-02-28T07:27:11;7.40;99.90
6375;DHT22;35400;45.472;-122.822;2024-02-28T07:29:38;7.40;99.90
6375;DHT22;35400;45.472;-122.822;2024-02-28T07:32:05;7.40;99.90
6375;DHT22;35400;45.472;-122.822;2024-02-28T07:34:32;7.40;99.90
6375;DHT22;35400;45.472;-122.822;2024-02-28T07:37:00;7.40;99.90
6375;DHT22;35400;45.472;-122.822;2024-02-28T07:39:27;7.40;99.90
6375;DHT22;35400;45.472;-122.822;2024-02-28T07:41:54;7.40;99.90
6375;DHT22;35400;45.472;-122.822;2024-02-28T07:44:20;7.50;99.90
6375;DHT22;35400;45.472;-122.822;2024-02-28T07:46:47;7.50;99.90
6375;DHT22;35400;45.472;-122.822;2024-02-28T07:49:16;7.50;99.90
6375;DHT22;35400;45.472;-122.822;2024-02-28T07:51:43;7.60;99.90
6375;DHT22;35400;45.472;-122.822;2024-02-28T07:54:10;7.60;99.90
6375;DHT22;35400;45.472;-122.822;2024-02-28T07:56:37;7.60;99.90
6375;DHT22;35400;45.472;-122.822;2024-02-28T07:59:04;7.60;99.90
6375;DHT22;35400;45.472;-122.822;2024-02-28T08:01:31;7.60;99.90
6375;DHT22;35400;45.472;-122.822;2024-02-28T08:03:58;7.60;99.90
6375;DHT22;35400;45.472;-122.822;2024-02-28T08:06:26;7.60;99.90
6375;DHT22;35400;45.472;-122.822;2024-02-28T08:08:52;7.60;99.90
6375;DHT22;35400;45.472;-122.822;2024-02-28T08:11:19;7.70;99.90
6375;DHT22;35400;45.472;-122.822;2024-02-28T08:13:46;7.60;99.90
6375;DHT22;35400;45.472;-122.822;2024-02-28T08:16:13;7.60;99.90
6375;DHT22;35400;45.472;-122.822;2024-02-28T08:18:40;7.70;99.90
6375;DHT22;35400;45.472;-122.822;2024-02-28T08:21:08;7.70;99.90
6375;DHT22;35400;45.472;-122.822;2024-02-28T08:23:35;7.70;99.90
6375;DHT22;35400;45.472;-122.822;2024-02-28T08:26:02;7.70;99.90
6375;DHT22;35400;45.472;-122.822;2024-02-28T08:28:30;7.70;99.90
6375;DHT22;35400;45.472;-122.822;2024-02-28T08:30:58;7.70;99.90
6375;DHT22;35400;45.472;-122.822;2024-02-28T08:33:24;7.70;99.90
6375;DHT22;35400;45.472;-122.822;2024-02-28T08:35:51;7.70;99.90
6375;DHT22;35400;45.472;-122.822;2024-02-28T08:38:18;7.70;99.90
6375;DHT22;35400;45.472;-122.822;2024-02-28T08:40:45;7.70;99.90
6375;DHT22;35400;45.472;-122.822;2024-02-28T08:43:12;7.70;99.90
6375;DHT22;35400;45.472;-122.822;2024-02-28T08:45:39;7.70;99.90
6375;DHT22;35400;45.472;-122.822;2024-02-28T08:48:06;7.70;99.90
6375;DHT22;35400;45.472;-122.822;2024-02-28T08:50:33;7.70;99.90
6375;DHT22;35400;45.472;-122.822;2024-02-28T08:53:01;7.70;99.90
6375;DHT22;35400;45.472;-122.822;2024-02-28T08:55:28;7.70;99.90
6375;DHT22;35400;45.472;-122.822;2024-02-28T08:57:55;7.70;99.90
6375;DHT22;35400;45.472;-122.822;2024-02-28T09:00:22;7.70;99.90
6375;DHT22;35400;45.472;-122.822;2024-02-28T09:02:49;7.70;99.90
6375;DHT22;35400;45.472;-122.822;2024-02-28T09:05:15;7.80;99.90
6375;DHT22;35400;45.472;-122.822;2024-02-28T09:07:42;7.70;99.90
6375;DHT22;35400;45.472;-122.822;2024-02-28T09:10:09;7.80;99.90
6375;DHT22;35400;45.472;-122.822;2024-02-28T09:12:37;7.70;99.90
6375;DHT22;35400;45.472;-122.822;2024-02-28T09:15:04;7.80;99.90
6375;DHT22;35400;45.472;-122.822;2024-02-28T09:17:31;7.80;99.90
6375;DHT22;35400;45.472;-122.822;2024-02-28T09:19:58;7.80;99.90
6375;DHT22;35400;45.472;-122.822;2024-02-28T09:22:27;7.70;99.90
6375;DHT22;35400;45.472;-122.822;2024-02-28T09:24:54;7.80;99.90
6375;DHT22;35400;45.472;-122.822;2024-02-28T09:27:20;7.70;99.90
6375;DHT22;35400;45.472;-122.822;2024-02-28T09:29:47;7.70;99.90
6375;DHT22;35400;45.472;-122.822;2024-02-28T09:32:14;7.80;99.90
6375;DHT22;35400;45.472;-122.822;2024-02-28T09:34:41;7.70;99.90
6375;DHT22;35400;45.472;-122.822;2024-02-28T09:37:08;7.80;99.90
6375;DHT22;35400;45.472;-122.822;2024-02-28T09:39:37;7.80;99.90
6375;DHT22;35400;45.472;-122.822;2024-02-28T09:42:06;7.80;99.90
6375;DHT22;35400;45.472;-122.822;2024-02-28T09:44:36;7.80;99.90
6375;DHT22;35400;45.472;-122.822;2024-02-28T09:47:04;7.80;99.90
6375;DHT22;35400;45.472;-122.822;2024-02-28T09:49:32;7.80;99.90
6375;DHT22;35400;45.472;-122.822;2024-02-28T09:51:59;7.80;99.90
6375;DHT22;35400;45.472;-122.822;2024-02-28T09:54:27;7.80;99.90
6375;DHT22;35400;45.472;-122.822;2024-02-28T09:56:55;7.80;99.90
6375;DHT22;35400;45.472;-122.822;2024-02-28T09:59:24;7.80;99.90
6375;DHT22;35400;45.472;-122.822;2024-02-28T10:01:57;7.80;99.90
6375;DHT22;35400;45.472;-122.822;2024-02-28T10:04:26;7.80;99.90
6375;DHT22;35400;45.472;-122.822;2024-02-28T10:06:54;7.80;99.90
6375;DHT22;35400;45.472;-122.822;2024-02-28T10:09:20;7.80;99.90
6375;DHT22;35400;45.472;-122.822;2024-02-28T10:11:47;7.90;99.90
6375;DHT22;35400;45.472;-122.822;2024-02-28T10:14:18;7.90;99.90
6375;DHT22;35400;45.472;-122.822;2024-02-28T10:16:46;7.90;99.90
6375;DHT22;35400;45.472;-122.822;2024-02-28T10:19:13;7.90;99.90
6375;DHT22;35400;45.472;-122.822;2024-02-28T10:21:40;7.90;99.90
6375;DHT22;35400;45.472;-122.822;2024-02-28T10:24:06;7.90;99.90
6375;DHT22;35400;45.472;-122.822;2024-02-28T10:26:42;8.00;99.90
6375;DHT22;35400;45.472;-122.822;2024-02-28T10:29:09;8.00;99.90
6375;DHT22;35400;45.472;-122.822;2024-02-28T10:31:36;8.10;99.90
6375;DHT22;35400;45.472;-122.822;2024-02-28T10:34:04;8.10;99.90
6375;DHT22;35400;45.472;-122.822;2024-02-28T10:36:32;8.10;99.90
6375;DHT22;35400;45.472;-122.822;2024-02-28T10:39:00;8.10;99.90
6375;DHT22;35400;45.472;-122.822;2024-02-28T10:41:28;8.10;99.90
6375;DHT22;35400;45.472;-122.822;2024-02-28T10:43:55;8.10;99.90
6375;DHT22;35400;45.472;-122.822;2024-02-28T10:46:22;8.10;99.90
6375;DHT22;35400;45.472;-122.822;2024-02-28T10:48:52;8.10;99.90
6375;DHT22;35400;45.472;-122.822;2024-02-28T10:51:24;8.10;99.90
6375;DHT22;35400;45.472;-122.822;2024-02-28T10:54:09;8.10;99.90
6375;DHT22;35400;45.472;-122.822;2024-02-28T10:56:39;8.10;99.90
6375;DHT22;35400;45.472;-122.822;2024-02-28T10:59:09;8.10;99.90
6375;DHT22;35400;45.472;-122.822;2024-02-28T11:01:38;8.10;99.90
6375;DHT22;35400;45.472;-122.822;2024-02-28T11:04:08;8.10;99.90
6375;DHT22;35400;45.472;-122.822;2024-02-28T11:06:46;8.10;99.90
6375;DHT22;35400;45.472;-122.822;2024-02-28T11:09:18;8.20;99.90
6375;DHT22;35400;45.472;-122.822;2024-02-28T11:11:45;8.20;99.90
6375;DHT22;35400;45.472;-122.822;2024-02-28T11:14:15;8.20;99.90
6375;DHT22;35400;45.472;-122.822;2024-02-28T11:16:42;8.20;99.90
6375;DHT22;35400;45.472;-122.822;2024-02-28T11:19:21;8.20;99.90
6375;DHT22;35400;45.472;-122.822;2024-02-28T11:21:54;8.20;99.90
6375;DHT22;35400;45.472;-122.822;2024-02-28T11:24:29;8.20;99.90
6375;DHT22;35400;45.472;-122.822;2024-02-28T11:26:57;8.20;99.90
6375;DHT22;35400;45.472;-122.822;2024-02-28T11:29:27;8.30;99.90
6375;DHT22;35400;45.472;-122.822;2024-02-28T11:31:57;8.30;99.90
6375;DHT22;35400;45.472;-122.822;2024-02-28T11:34:24;8.30;99.90
6375;DHT22;35400;45.472;-122.822;2024-02-28T11:36:51;8.20;99.90
6375;DHT22;35400;45.472;-122.822;2024-02-28T11:39:19;8.20;99.90
6375;DHT22;35400;45.472;-122.822;2024-02-28T11:41:47;8.30;99.90
6375;DHT22;35400;45.472;-122.822;2024-02-28T11:44:16;8.30;99.90
6375;DHT22;35400;45.472;-122.822;2024-02-28T11:46:49;8.30;99.90
6375;DHT22;35400;45.472;-122.822;2024-02-28T11:49:17;8.30;99.90
6375;DHT22;35400;45.472;-122.822;2024-02-28T11:51:44;8.30;99.90
6375;DHT22;35400;45.472;-122.822;2024-02-28T11:54:12;8.30;99.90
6375;DHT22;35400;45.472;-122.822;2024-02-28T11:56:39;8.30;99.90
6375;DHT22;35400;45.472;-122.822;2024-02-28T11:59:06;8.30;99.90
6375;DHT22;35400;45.472;-122.822;2024-02-28T12:01:38;8.30;99.90
6375;DHT22;35400;45.472;-122.822;2024-02-28T12:04:06;8.30;99.90
6375;DHT22;35400;45.472;-122.822;2024-02-28T12:06:34;8.30;99.90
6375;DHT22;35400;45.472;-122.822;2024-02-28T12:09:01;8.40;99.90
6375;DHT22;35400;45.472;-122.822;2024-02-28T12:11:30;8.40;99.90
6375;DHT22;35400;45.472;-122.822;2024-02-28T12:13:57;8.40;99.90
6375;DHT22;35400;45.472;-122.822;2024-02-28T12:16:25;8.40;99.90
6375;DHT22;35400;45.472;-122.822;2024-02-28T12:18:54;8.40;99.90
6375;DHT22;35400;45.472;-122.822;2024-02-28T12:21:21;8.40;99.90
6375;DHT22;35400;45.472;-122.822;2024-02-28T12:23:49;8.40;99.90
6375;DHT22;35400;45.472;-122.822;2024-02-28T12:26:18;8.40;99.90
6375;DHT22;35400;45.472;-122.822;2024-02-28T12:28:46;8.40;99.90
6375;DHT22;35400;45.472;-122.822;2024-02-28T12:31:13;8.40;99.90
6375;DHT22;35400;45.472;-122.822;2024-02-28T12:33:40;8.50;99.90
6375;DHT22;35400;45.472;-122.822;2024-02-28T12:36:08;8.40;99.90
6375;DHT22;35400;45.472;-122.822;2024-02-28T12:38:35;8.50;99.90
6375;DHT22;35400;45.472;-122.822;2024-02-28T12:41:02;8.50;99.90
6375;DHT22;35400;45.472;-122.822;2024-02-28T12:43:30;8.50;99.90
6375;DHT22;35400;45.472;-122.822;2024-02-28T12:45:58;8.50;99.90
6375;DHT22;35400;45.472;-122.822;2024-02-28T12:48:25;8.50;99.90
6375;DHT22;35400;45.472;-122.822;2024-02-28T12:50:52;8.50;99.90
6375;DHT22;35400;45.472;-122.822;2024-02-28T12:53:19;8.50;99.90
6375;DHT22;35400;45.472;-122.822;2024-02-28T12:55:46;8.50;99.90
6375;DHT22;35400;45.472;-122.822;2024-02-28T12:58:13;8.50;99.90
6375;DHT22;35400;45.472;-122.822;2024-02-28T13:00:40;8.50;99.90
6375;DHT22;35400;45.472;-122.822;2024-02-28T13:03:06;8.50;99.90
6375;DHT22;35400;45.472;-122.822;2024-02-28T13:05:33;8.60;99.90
6375;DHT22;35400;45.472;-122.822;2024-02-28T13:08:00;8.60;99.90
6375;DHT22;35400;45.472;-122.822;2024-02-28T13:10:27;8.60;99.90
6375;DHT22;35400;45.472;-122.822;2024-02-28T13:12:54;8.60;99.90
6375;DHT22;35400;45.472;-122.822;2024-02-28T13:15:21;8.50;99.90
6375;DHT22;35400;45.472;-122.822;2024-02-28T13:17:48;8.60;99.90
6375;DHT22;35400;45.472;-122.822;2024-02-28T13:20:16;8.60;99.90
6375;DHT22;35400;45.472;-122.822;2024-02-28T13:22:43;8.60;99.90
6375;DHT22;35400;45.472;-122.822;2024-02-28T13:25:11;8.60;99.90
6375;DHT22;35400;45.472;-122.822;2024-02-28T13:27:40;8.60;99.90
6375;DHT22;35400;45.472;-122.822;2024-02-28T13:30:08;8.60;99.90
6375;DHT22;35400;45.472;-122.822;2024-02-28T13:32:35;8.60;99.90
6375;DHT22;35400;45.472;-122.822;2024-02-28T13:35:02;8.60;99.90
6375;DHT22;35400;45.472;-122.822;2024-02-28T13:37:29;8.50;99.90
6375;DHT22;35400;45.472;-122.822;2024-02-28T13:39:57;8.50;99.90
6375;DHT22;35400;45.472;-122.822;2024-02-28T13:42:24;8.50;99.90
6375;DHT22;35400;45.472;-122.822;2024-02-28T13:44:52;8.50;99.90
6375;DHT22;35400;45.472;-122.822;2024-02-28T13:47:19;8.50;99.90
6375;DHT22;35400;45.472;-122.822;2024-02-28T13:49:45;8.60;99.90
6375;DHT22;35400;45.472;-122.822;2024-02-28T13:52:13;8.50;99.90
6375;DHT22;35400;45.472;-122.822;2024-02-28T13:54:40;8.60;99.90
6375;DHT22;35400;45.472;-122.822;2024-02-28T13:57:07;8.60;99.90
6375;DHT22;35400;45.472;-122.822;2024-02-28T13:59:34;8.60;99.90
6375;DHT22;35400;45.472;-122.822;2024-02-28T14:02:01;8.60;99.90
6375;DHT22;35400;45.472;-122.822;2024-02-28T14:04:28;8.60;99.90
6375;DHT22;35400;45.472;-122.822;2024-02-28T14:06:55;8.60;99.90
6375;DHT22;35400;45.472;-122.822;2024-02-28T14:09:22;8.60;99.90
6375;DHT22;35400;45.472;-122.822;2024-02-28T14:11:49;8.60;99.90
6375;DHT22;35400;45.472;-122.822;2024-02-28T14:14:16;8.60;99.90
6375;DHT22;35400;45.472;-122.822;2024-02-28T14:16:43;8.60;99.90
6375;DHT22;35400;45.472;-122.822;2024-02-28T14:19:10;8.70;99.90
6375;DHT22;35400;45.472;-122.822;2024-02-28T14:21:37;8.70;99.90
6375;DHT22;35400;45.472;-122.822;2024-02-28T14:24:04;8.70;99.90
6375;DHT22;35400;45.472;-122.822;2024-02-28T14:26:31;8.70;99.90
6375;DHT22;35400;45.472;-122.822;2024-02-28T14:28:58;8.70;99.90
6375;DHT22;35400;45.472;-122.822;2024-02-28T14:31:25;8.70;99.90
6375;DHT22;35400;45.472;-122.822;2024-02-28T14:33:53;8.70;99.90
6375;DHT22;35400;45.472;-122.822;2024-02-28T14:36:20;8.80;99.90
6375;DHT22;35400;45.472;-122.822;2024-02-28T14:38:47;8.80;99.90
6375;DHT22;35400;45.472;-122.822;2024-02-28T14:41:14;8.70;99.90
6375;DHT22;35400;45.472;-122.822;2024-02-28T14:43:41;8.70;99.90
6375;DHT22;35400;45.472;-122.822;2024-02-28T14:46:08;8.70;99.90
6375;DHT22;35400;45.472;-122.822;2024-02-28T14:48:36;8.70;99.90
6375;DHT22;35400;45.472;-122.822;2024-02-28T14:51:03;8.70;99.90
6375;DHT22;35400;45.472;-122.822;2024-02-28T14:53:30;8.70;99.90
6375;DHT22;35400;45.472;-122.822;2024-02-28T14:55:57;8.70;99.90
6375;DHT22;35400;45.472;-122.822;2024-02-28T14:58:24;8.70;99.90
6375;DHT22;35400;45.472;-122.822;2024-02-28T15:00:50;8.70;99.90
6375;DHT22;35400;45.472;-122.822;2024-02-28T15:03:17;8.80;99.90
6375;DHT22;35400;45.472;-122.822;2024-02-28T15:05:45;8.80;99.90
6375;DHT22;35400;45.472;-122.822;2024-02-28T15:08:11;8.70;99.90
6375;DHT22;35400;45.472;-122.822;2024-02-28T15:10:39;8.70;99.90
6375;DHT22;35400;45.472;-122.822;2024-02-28T15:13:06;8.80;99.90
6375;DHT22;35400;45.472;-122.822;2024-02-28T15:15:33;8.80;99.90
6375;DHT22;35400;45.472;-122.822;2024-02-28T15:18:00;8.80;99.90